createdAt,value
2023-03-31T00:00:19.124Z,99906.00
2023-03-31T00:02:47.564Z,99902.50
2023-03-31T00:05:18.070Z,99910.34
2023-03-31T00:07:45.982Z,99909.50
2023-03-31T00:10:18.327Z,99915.56
2023-03-31T00:12:46.796Z,99913.00
2023-03-31T00:15:13.637Z,99907.81
2023-03-31T00:17:40.315Z,99907.81
2023-03-31T00:20:12.396Z,99905.22
2023-03-31T00:22:42.254Z,99897.38
2023-03-31T00:25:11.277Z,99894.72
2023-03-31T00:27:38.158Z,99888.66
2023-03-31T00:30:05.275Z,99895.47
2023-03-31T00:32:33.431Z,99885.97
2023-03-31T00:35:02.371Z,99886.78
2023-03-31T00:37:29.606Z,99883.31
2023-03-31T00:39:56.881Z,99888.53
2023-03-31T00:42:23.604Z,99881.63
2023-03-31T00:45:28.120Z,99891.09
2023-03-31T00:48:01.110Z,99878.09
2023-03-31T00:50:31.416Z,99880.63
2023-03-31T00:53:02.581Z,99869.38
2023-03-31T00:55:34.926Z,99868.53
2023-03-31T00:58:02.062Z,99865.97
2023-03-31T01:00:30.192Z,99861.66
2023-03-31T01:02:58.947Z,99865.09
2023-03-31T01:05:28.758Z,99868.50
2023-03-31T01:07:58.493Z,99862.47
2023-03-31T01:10:25.059Z,99855.53
2023-03-31T01:12:53.862Z,99856.44
2023-03-31T01:15:20.399Z,99846.97
2023-03-31T01:17:47.474Z,99841.78
2023-03-31T01:20:45.393Z,99833.97
2023-03-31T01:23:31.549Z,99834.84
2023-03-31T01:26:16.547Z,99833.97
2023-03-31T01:29:04.651Z,99825.28
2023-03-31T01:31:55.312Z,99829.56
2023-03-31T01:34:33.885Z,99827.84
2023-03-31T01:37:25.491Z,99826.97
2023-03-31T01:40:13.153Z,99816.53
2023-03-31T01:43:06.783Z,99820.81
2023-03-31T01:45:51.993Z,99806.94
2023-03-31T01:48:42.045Z,99805.25
2023-03-31T01:51:49.387Z,99800.88
2023-03-31T01:54:33.079Z,99793.97
2023-03-31T01:57:02.107Z,99793.13
2023-03-31T01:59:38.482Z,99796.56
2023-03-31T02:02:15.574Z,99782.66
2023-03-31T02:04:47.781Z,99781.78
2023-03-31T02:07:24.994Z,99776.56
2023-03-31T02:10:00.730Z,99785.13
2023-03-31T02:12:28.974Z,99785.09
2023-03-31T02:14:56.514Z,99777.25
2023-03-31T02:17:30.552Z,99773.75
2023-03-31T02:19:59.780Z,99777.22
2023-03-31T02:22:29.272Z,99766.88
2023-03-31T02:24:56.427Z,99762.50
2023-03-31T02:27:25.971Z,99755.63
2023-03-31T02:29:52.947Z,99750.44
2023-03-31T02:32:41.986Z,99753.06
2023-03-31T02:35:12.638Z,99747.88
2023-03-31T02:37:40.343Z,99745.25
2023-03-31T02:40:10.547Z,99740.06
2023-03-31T02:42:38.881Z,99739.22
2023-03-31T02:45:07.339Z,99736.63
2023-03-31T02:47:34.375Z,99725.28
2023-03-31T02:50:02.016Z,99731.34
2023-03-31T02:52:46.604Z,99725.28
2023-03-31T02:55:21.774Z,99719.13
2023-03-31T02:58:27.371Z,99713.91
2023-03-31T03:01:06.290Z,99710.47
2023-03-31T03:04:09.513Z,99700.91
2023-03-31T03:06:57.590Z,99706.88
2023-03-31T03:09:44.470Z,99710.22
2023-03-31T03:12:25.297Z,99698.94
2023-03-31T03:15:21.773Z,99691.06
2023-03-31T03:17:48.986Z,99691.91
2023-03-31T03:20:16.387Z,99672.88
2023-03-31T03:22:43.206Z,99677.25
2023-03-31T03:25:12.022Z,99678.06
2023-03-31T03:27:39.058Z,99678.78
2023-03-31T03:30:08.402Z,99674.38
2023-03-31T03:32:35.941Z,99670.00
2023-03-31T03:35:03.786Z,99657.00
2023-03-31T03:37:32.776Z,99652.56
2023-03-31T03:39:59.273Z,99648.16
2023-03-31T03:42:25.789Z,99649.00
2023-03-31T03:44:52.287Z,99642.06
2023-03-31T03:47:18.777Z,99645.50
2023-03-31T03:49:45.310Z,99634.28
2023-03-31T03:52:11.843Z,99640.34
2023-03-31T03:54:38.304Z,99639.47
2023-03-31T03:57:04.879Z,99642.97
2023-03-31T03:59:31.434Z,99636.03
2023-03-31T04:01:58.026Z,99635.19
2023-03-31T04:04:24.502Z,99639.53
2023-03-31T04:06:51.260Z,99631.75
2023-03-31T04:09:17.765Z,99625.75
2023-03-31T04:11:44.235Z,99620.50
2023-03-31T04:14:10.721Z,99623.94
2023-03-31T04:16:38.506Z,99623.94
2023-03-31T04:19:05.226Z,99611.06
2023-03-31T04:21:34.943Z,99609.31
2023-03-31T04:24:04.850Z,99605.03
2023-03-31T04:26:43.124Z,99594.66
2023-03-31T04:29:12.763Z,99592.91
2023-03-31T04:31:42.834Z,99598.03
2023-03-31T04:34:13.614Z,99592.00
2023-03-31T04:36:42.792Z,99587.69
2023-03-31T04:39:12.647Z,99581.59
2023-03-31T04:41:39.123Z,99571.97
2023-03-31T04:44:05.865Z,99570.38
2023-03-31T04:46:33.432Z,99560.94
2023-03-31T04:49:00.991Z,99556.59
2023-03-31T04:51:27.737Z,99547.97
2023-03-31T04:53:54.219Z,99536.75
2023-03-31T04:56:20.885Z,99535.06
2023-03-31T04:58:47.388Z,99532.44
2023-03-31T05:01:18.303Z,99520.34
2023-03-31T05:03:47.907Z,99523.78
2023-03-31T05:06:15.797Z,99521.22
2023-03-31T05:08:42.725Z,99522.16
2023-03-31T05:11:09.195Z,99516.13
2023-03-31T05:13:35.744Z,99509.22
2023-03-31T05:16:14.453Z,99503.16
2023-03-31T05:18:41.506Z,99487.56
2023-03-31T05:21:17.634Z,99482.38
2023-03-31T05:23:44.879Z,99481.50
2023-03-31T05:26:11.964Z,99476.31
2023-03-31T05:28:38.539Z,99471.97
2023-03-31T05:31:06.678Z,99467.69
2023-03-31T05:33:34.018Z,99466.94
2023-03-31T05:36:00.747Z,99465.31
2023-03-31T05:38:31.648Z,99444.69
2023-03-31T05:40:58.447Z,99450.84
2023-03-31T05:43:25.245Z,99444.97
2023-03-31T05:45:52.734Z,99444.28
2023-03-31T05:48:19.267Z,99447.06
2023-03-31T05:50:46.103Z,99447.16
2023-03-31T05:53:12.662Z,99449.06
2023-03-31T05:55:39.518Z,99446.56
2023-03-31T05:58:06.870Z,99444.88
2023-03-31T06:00:33.479Z,99440.69
2023-03-31T06:03:00.075Z,99433.00
2023-03-31T06:05:26.947Z,99428.84
2023-03-31T06:07:53.684Z,99426.34
2023-03-31T06:10:20.656Z,99404.94
2023-03-31T06:12:47.151Z,99414.69
2023-03-31T06:15:13.783Z,99413.13
2023-03-31T06:17:40.426Z,99409.72
2023-03-31T06:20:19.747Z,99412.34
2023-03-31T06:22:53.321Z,99402.81
2023-03-31T06:25:19.778Z,99395.91
2023-03-31T06:27:46.280Z,99397.69
2023-03-31T06:30:13.254Z,99407.19
2023-03-31T06:32:39.749Z,99397.69
2023-03-31T06:35:06.698Z,99389.88
2023-03-31T06:37:33.173Z,99396.84
2023-03-31T06:39:59.649Z,99399.47
2023-03-31T06:42:26.199Z,99390.81
2023-03-31T06:44:52.741Z,99385.63
2023-03-31T06:47:19.282Z,99389.94
2023-03-31T06:49:46.229Z,99400.34
2023-03-31T06:52:12.752Z,99392.53
2023-03-31T06:54:39.242Z,99395.16
2023-03-31T06:57:05.906Z,99389.97
2023-03-31T06:59:32.419Z,99390.00
2023-03-31T07:01:58.949Z,99383.06
2023-03-31T07:04:25.442Z,99386.56
2023-03-31T07:06:51.874Z,99383.13
2023-03-31T07:09:18.798Z,99373.69
2023-03-31T07:11:45.278Z,99358.13
2023-03-31T07:14:11.908Z,99348.63
2023-03-31T07:16:38.426Z,99337.44
2023-03-31T07:19:06.617Z,99336.63
2023-03-31T07:21:33.043Z,99347.06
2023-03-31T07:23:59.590Z,99352.34
2023-03-31T07:26:27.061Z,99346.34
2023-03-31T07:28:56.631Z,99345.53
2023-03-31T07:31:23.445Z,99348.16
2023-03-31T07:33:49.864Z,99349.91
2023-03-31T07:36:17.440Z,99348.25
2023-03-31T07:38:46.949Z,99347.41
2023-03-31T07:41:14.986Z,99344.84
2023-03-31T07:43:41.728Z,99339.72
2023-03-31T07:46:15.347Z,99346.72
2023-03-31T07:48:41.803Z,99346.75
2023-03-31T07:51:08.376Z,99339.09
2023-03-31T07:53:34.958Z,99340.91
2023-03-31T07:56:01.380Z,99339.19
2023-03-31T07:58:28.241Z,99334.91
2023-03-31T08:00:54.728Z,99332.31
2023-03-31T08:03:21.310Z,99334.94
2023-03-31T08:05:48.934Z,99321.06
2023-03-31T08:08:16.333Z,99315.88
2023-03-31T08:10:42.727Z,99318.50
2023-03-31T08:13:09.168Z,99320.25
2023-03-31T08:15:35.575Z,99307.22
2023-03-31T08:18:03.741Z,99299.41
2023-03-31T08:20:30.167Z,99302.00
2023-03-31T08:22:56.577Z,99294.19
2023-03-31T08:25:23.873Z,99299.41
2023-03-31T08:27:53.239Z,99296.75
2023-03-31T08:30:20.543Z,99297.63
2023-03-31T08:32:47.183Z,99292.44
2023-03-31T08:35:13.669Z,99295.91
2023-03-31T08:37:40.149Z,99286.34
2023-03-31T08:40:09.603Z,99288.94
2023-03-31T08:42:42.283Z,99295.88
2023-03-31T08:45:28.189Z,99292.34
2023-03-31T08:47:59.807Z,99288.88
2023-03-31T08:50:29.123Z,99277.59
2023-03-31T08:53:14.069Z,99261.13
2023-03-31T08:55:53.980Z,99268.94
2023-03-31T08:58:29.445Z,99252.47
2023-03-31T09:01:23.641Z,99249.91
2023-03-31T09:04:30.111Z,99237.78
2023-03-31T09:07:08.538Z,99238.66
2023-03-31T09:10:12.994Z,99226.53
2023-03-31T09:13:14.135Z,99223.16
2023-03-31T09:15:51.019Z,99214.50
2023-03-31T09:18:39.320Z,99205.84
2023-03-31T09:21:27.486Z,99195.44
2023-03-31T09:24:06.970Z,99189.34
2023-03-31T09:26:40.619Z,99189.34
2023-03-31T09:29:15.583Z,99188.47
2023-03-31T09:31:43.667Z,99186.72
2023-03-31T09:34:31.740Z,99179.81
2023-03-31T09:36:58.196Z,99178.94
2023-03-31T09:39:24.732Z,99186.75
2023-03-31T09:41:52.450Z,99168.50
2023-03-31T09:44:26.100Z,99177.16
2023-03-31T09:46:53.986Z,99173.66
2023-03-31T09:49:23.389Z,99177.16
2023-03-31T09:52:01.133Z,99174.56
2023-03-31T09:54:34.761Z,99165.88
2023-03-31T09:57:01.390Z,99152.88
2023-03-31T09:59:35.002Z,99147.66
2023-03-31T10:02:21.636Z,99144.19
2023-03-31T10:04:48.097Z,99138.09
2023-03-31T10:07:21.284Z,99145.03
2023-03-31T10:09:47.933Z,99138.09
2023-03-31T10:12:17.177Z,99137.22
2023-03-31T10:14:48.708Z,99138.09
2023-03-31T10:17:17.300Z,99128.56
2023-03-31T10:19:59.893Z,99137.22
2023-03-31T10:22:35.517Z,99132.91
2023-03-31T10:25:17.974Z,99130.31
2023-03-31T10:27:47.739Z,99128.53
2023-03-31T10:30:19.294Z,99128.53
2023-03-31T10:32:48.841Z,99132.91
2023-03-31T10:35:30.645Z,99124.22
2023-03-31T10:38:04.679Z,99126.81
2023-03-31T10:40:33.378Z,99125.06
2023-03-31T10:43:04.199Z,99118.13
2023-03-31T10:45:38.337Z,99123.31
2023-03-31T10:48:06.310Z,99124.19
2023-03-31T10:50:35.276Z,99117.25
2023-03-31T10:53:14.050Z,99119.88
2023-03-31T10:55:57.005Z,99114.63
2023-03-31T10:58:29.360Z,99119.84
2023-03-31T11:01:16.976Z,99114.59
2023-03-31T11:04:20.543Z,99122.41
2023-03-31T11:07:21.910Z,99118.06
2023-03-31T11:10:06.587Z,99120.66
2023-03-31T11:12:49.708Z,99115.41
2023-03-31T11:15:42.560Z,99118.88
2023-03-31T11:18:21.721Z,99111.84
2023-03-31T11:21:20.334Z,99112.69
2023-03-31T11:23:58.265Z,99115.25
2023-03-31T11:26:39.817Z,99104.81
2023-03-31T11:29:31.183Z,99106.56
2023-03-31T11:32:21.811Z,99104.81
2023-03-31T11:35:14.192Z,99101.34
2023-03-31T11:37:55.110Z,99114.31
2023-03-31T11:40:35.504Z,99110.00
2023-03-31T11:43:11.036Z,99108.22
2023-03-31T11:45:41.442Z,99097.75
2023-03-31T11:48:16.771Z,99092.56
2023-03-31T11:50:45.271Z,99092.59
2023-03-31T11:53:17.141Z,99096.09
2023-03-31T11:55:45.564Z,99097.81
2023-03-31T11:58:35.406Z,99090.88
2023-03-31T12:01:38.932Z,99089.09
2023-03-31T12:04:11.970Z,99092.56
2023-03-31T12:06:42.521Z,99089.97
2023-03-31T12:09:32.947Z,99096.00
2023-03-31T12:12:05.715Z,99089.94
2023-03-31T12:14:41.743Z,99094.28
2023-03-31T12:17:14.330Z,99092.50
2023-03-31T12:19:52.630Z,99097.66
2023-03-31T12:22:34.487Z,99085.50
2023-03-31T12:25:00.919Z,99082.91
2023-03-31T12:27:40.417Z,99082.06
2023-03-31T12:30:12.090Z,99076.00
2023-03-31T12:32:48.862Z,99074.28
2023-03-31T12:35:21.782Z,99071.69
2023-03-31T12:38:16.747Z,99076.03
2023-03-31T12:41:04.559Z,99063.91
2023-03-31T12:43:42.601Z,99067.41
2023-03-31T12:46:52.689Z,99059.63
2023-03-31T12:50:07.238Z,99055.25
2023-03-31T12:52:56.893Z,99048.31
2023-03-31T12:55:33.096Z,99042.31
2023-03-31T12:58:24.806Z,99038.00
2023-03-31T13:01:11.621Z,99047.53
2023-03-31T13:03:51.873Z,99049.28
2023-03-31T13:06:27.295Z,99046.69
2023-03-31T13:09:04.138Z,99036.31
2023-03-31T13:11:33.452Z,99031.13
2023-03-31T13:14:02.117Z,99025.09
2023-03-31T13:16:30.131Z,99028.56
2023-03-31T13:18:56.735Z,99022.53
2023-03-31T13:21:24.175Z,99026.88
2023-03-31T13:23:50.812Z,99026.91
2023-03-31T13:26:38.665Z,99030.38
2023-03-31T13:29:21.824Z,99030.38
2023-03-31T13:32:18.778Z,99022.59
2023-03-31T13:35:04.448Z,99025.19
2023-03-31T13:37:36.809Z,99025.19
2023-03-31T13:40:28.190Z,99017.34
2023-03-31T13:43:28.611Z,99016.47
2023-03-31T13:46:04.288Z,99019.94
2023-03-31T13:48:51.616Z,99015.63
2023-03-31T13:51:40.671Z,99023.41
2023-03-31T13:54:19.072Z,99009.56
2023-03-31T13:57:18.085Z,98999.19
2023-03-31T13:59:56.049Z,98988.81
2023-03-31T14:02:45.098Z,98989.69
2023-03-31T14:05:38.817Z,98987.13
2023-03-31T14:08:12.197Z,98976.72
2023-03-31T14:10:40.745Z,98970.66
2023-03-31T14:13:18.261Z,98972.38
2023-03-31T14:15:54.581Z,98967.16
2023-03-31T14:18:29.783Z,98967.16
2023-03-31T14:21:03.218Z,98972.34
2023-03-31T14:23:47.469Z,98974.94
2023-03-31T14:26:22.118Z,98963.66
2023-03-31T14:29:01.067Z,98959.31
2023-03-31T14:31:35.369Z,98964.50
2023-03-31T14:34:12.117Z,98965.34
2023-03-31T14:37:01.616Z,98956.66
2023-03-31T14:39:34.829Z,98958.41
2023-03-31T14:42:05.622Z,98951.47
2023-03-31T14:44:33.742Z,98942.78
2023-03-31T14:47:00.213Z,98943.66
2023-03-31T14:49:36.732Z,98938.41
2023-03-31T14:52:13.601Z,98941.03
2023-03-31T14:54:41.219Z,98942.78
2023-03-31T14:57:07.750Z,98936.72
2023-03-31T14:59:35.761Z,98945.38
2023-03-31T15:02:04.078Z,98945.38
2023-03-31T15:04:41.926Z,98925.41
2023-03-31T15:07:09.157Z,98928.88
2023-03-31T15:09:36.353Z,98933.22
2023-03-31T15:12:07.645Z,98934.09
2023-03-31T15:14:42.443Z,98932.38
2023-03-31T15:17:18.081Z,98936.75
2023-03-31T15:19:44.527Z,98928.06
2023-03-31T15:22:14.347Z,98920.25
2023-03-31T15:24:40.885Z,98920.25
2023-03-31T15:27:13.768Z,98921.13
2023-03-31T15:29:44.803Z,98924.63
2023-03-31T15:32:23.669Z,98920.28
2023-03-31T15:34:50.904Z,98921.16
2023-03-31T15:37:24.932Z,98918.59
2023-03-31T15:39:51.345Z,98920.31
2023-03-31T15:42:18.278Z,98925.53
2023-03-31T15:44:47.038Z,98915.13
2023-03-31T15:47:18.221Z,98919.44
2023-03-31T15:49:50.704Z,98929.00
2023-03-31T15:52:22.118Z,98931.63
2023-03-31T15:54:48.550Z,98930.72
2023-03-31T15:57:19.442Z,98936.78
2023-03-31T16:02:23.657Z,98929.81
2023-03-31T16:04:51.380Z,98935.03
2023-03-31T16:07:24.022Z,98933.25
2023-03-31T16:09:55.901Z,98934.13
2023-03-31T16:12:30.223Z,98924.59
2023-03-31T16:15:00.617Z,98933.25
2023-03-31T16:17:43.033Z,98922.03
2023-03-31T16:20:21.917Z,98925.50
2023-03-31T16:22:52.020Z,98915.06
2023-03-31T16:25:23.479Z,98911.63
2023-03-31T16:27:55.132Z,98915.06
2023-03-31T16:30:33.984Z,98930.69
2023-03-31T16:33:02.674Z,98932.44
2023-03-31T16:35:34.805Z,98934.19
2023-03-31T16:38:04.090Z,98925.53
2023-03-31T16:40:32.843Z,98928.09
2023-03-31T16:43:18.700Z,98929.84
2023-03-31T16:45:49.340Z,98933.31
2023-03-31T16:48:17.645Z,98941.16
2023-03-31T16:50:49.316Z,98926.41
2023-03-31T16:53:18.775Z,98929.03
2023-03-31T16:55:45.616Z,98928.13
2023-03-31T16:58:12.551Z,98935.09
2023-03-31T17:00:40.623Z,98928.13
2023-03-31T17:03:09.875Z,98926.41
2023-03-31T17:05:41.301Z,98916.91
2023-03-31T17:08:08.519Z,98913.81
2023-03-31T17:10:35.342Z,98917.19
2023-03-31T17:13:01.957Z,98926.16
2023-03-31T17:15:29.700Z,98908.03
2023-03-31T17:17:58.755Z,98915.94
2023-03-31T17:20:26.422Z,98916.00
2023-03-31T17:22:54.021Z,98911.66
2023-03-31T17:25:21.396Z,98908.22
2023-03-31T17:27:48.175Z,98909.03
2023-03-31T17:30:14.965Z,98915.09
2023-03-31T17:32:41.657Z,98912.47
2023-03-31T17:35:08.698Z,98909.03
2023-03-31T17:37:37.381Z,98915.91
2023-03-31T17:40:05.032Z,98915.06
2023-03-31T17:42:31.698Z,98927.16
2023-03-31T17:44:58.400Z,98921.91
2023-03-31T17:47:25.063Z,98923.59
2023-03-31T17:49:51.891Z,98917.53
2023-03-31T17:52:18.381Z,98925.25
2023-03-31T17:54:44.871Z,98929.56
2023-03-31T17:57:11.398Z,98937.31
2023-03-31T17:59:38.934Z,98935.53
2023-03-31T18:02:05.740Z,98939.84
2023-03-31T18:04:33.322Z,98944.16
2023-03-31T18:07:00.323Z,98946.66
2023-03-31T18:09:26.821Z,98948.34
2023-03-31T18:11:53.719Z,98951.75
2023-03-31T18:14:20.329Z,98955.22
2023-03-31T18:16:46.845Z,98950.88
2023-03-31T18:19:14.152Z,98950.88
2023-03-31T18:21:40.839Z,98953.47
2023-03-31T18:24:07.332Z,98956.91
2023-03-31T18:26:33.770Z,98962.09
2023-03-31T18:29:00.302Z,98968.16
2023-03-31T18:31:29.714Z,98961.22
2023-03-31T18:33:56.418Z,98969.81
2023-03-31T18:36:23.759Z,98965.47
2023-03-31T18:38:50.785Z,98965.44
2023-03-31T18:41:17.955Z,98978.41
2023-03-31T18:43:44.672Z,98968.03
2023-03-31T18:46:11.813Z,98975.75
2023-03-31T18:48:39.245Z,98979.16
2023-03-31T18:51:05.781Z,98973.97
2023-03-31T18:53:32.396Z,98980.00
2023-03-31T18:55:59.959Z,98983.47
2023-03-31T18:58:28.883Z,98983.47
2023-03-31T19:00:56.937Z,98988.66
2023-03-31T19:03:23.874Z,98982.59
2023-03-31T19:05:50.585Z,98986.06
2023-03-31T19:08:17.154Z,98994.72
2023-03-31T19:10:44.055Z,98991.31
2023-03-31T19:13:16.085Z,98990.44
2023-03-31T19:15:43.023Z,98997.34
2023-03-31T19:18:13.482Z,98996.47
2023-03-31T19:20:40.168Z,98996.47
2023-03-31T19:23:06.718Z,98996.47
2023-03-31T19:25:33.353Z,98996.47
2023-03-31T19:27:59.893Z,98995.59
2023-03-31T19:30:26.717Z,98993.88
2023-03-31T19:32:53.773Z,98994.72
2023-03-31T19:35:20.893Z,98995.59
2023-03-31T19:37:48.656Z,98990.44
2023-03-31T19:40:15.426Z,98999.06
2023-03-31T19:42:42.309Z,98993.00
2023-03-31T19:45:09.203Z,98986.94
2023-03-31T19:47:35.820Z,98989.53
2023-03-31T19:50:02.374Z,98987.78
2023-03-31T19:52:29.157Z,98987.78
2023-03-31T19:54:55.734Z,98986.03
2023-03-31T19:57:22.364Z,98979.13
2023-03-31T19:59:49.021Z,98981.75
2023-03-31T20:02:15.710Z,98978.28
2023-03-31T20:04:42.690Z,98982.59
2023-03-31T20:07:09.459Z,98984.31
2023-03-31T20:09:36.437Z,98982.59
2023-03-31T20:12:03.073Z,98984.31
2023-03-31T20:14:29.760Z,98981.72
2023-03-31T20:16:56.330Z,98980.00
2023-03-31T20:19:23.358Z,98978.22
2023-03-31T20:21:54.255Z,98982.53
2023-03-31T20:24:21.545Z,98982.53
2023-03-31T20:26:48.413Z,98986.84
2023-03-31T20:29:15.312Z,98994.59
2023-03-31T20:31:42.563Z,98984.22
2023-03-31T20:34:14.060Z,98985.09
2023-03-31T20:36:42.293Z,98983.34
2023-03-31T20:39:09.203Z,98993.72
2023-03-31T20:41:37.305Z,98988.50
2023-03-31T20:44:05.256Z,98989.38
2023-03-31T20:46:31.764Z,98992.75
2023-03-31T20:48:58.650Z,98993.59
2023-03-31T20:51:28.047Z,98992.72
2023-03-31T20:53:55.112Z,98994.44
2023-03-31T20:56:23.733Z,98996.06
2023-03-31T20:58:50.816Z,98996.06
2023-03-31T21:01:18.195Z,98996.91
2023-03-31T21:03:44.800Z,98997.81
2023-03-31T21:06:13.656Z,98994.38
2023-03-31T21:08:42.273Z,98996.06
2023-03-31T21:11:08.973Z,98997.81
2023-03-31T21:13:35.398Z,98996.06
2023-03-31T21:16:01.993Z,99000.41
2023-03-31T21:18:29.664Z,98998.69
2023-03-31T21:20:58.150Z,98996.06
2023-03-31T21:23:25.707Z,98998.66
2023-03-31T21:25:53.977Z,98990.88
2023-03-31T21:28:22.488Z,98990.88
2023-03-31T21:31:00.572Z,98993.47
2023-03-31T21:33:27.420Z,98988.28
2023-03-31T21:35:54.258Z,98990.91
2023-03-31T21:38:21.074Z,98992.69
2023-03-31T21:40:48.556Z,98993.56
2023-03-31T21:43:15.353Z,98997.91
2023-03-31T21:45:41.806Z,98992.72
2023-03-31T21:48:09.899Z,98997.94
2023-03-31T21:50:37.748Z,98991.03
2023-03-31T21:53:04.849Z,98998.88
2023-03-31T21:55:32.362Z,98997.16
2023-03-31T21:57:59.719Z,98998.91
2023-03-31T22:00:27.973Z,99004.09
2023-03-31T22:03:06.334Z,98998.94
2023-03-31T22:05:41.040Z,98996.31
2023-03-31T22:08:07.495Z,98998.03
2023-03-31T22:10:34.567Z,99007.56
2023-03-31T22:13:01.012Z,99003.25
2023-03-31T22:15:27.808Z,98998.06
2023-03-31T22:17:54.288Z,98998.06
2023-03-31T22:20:20.986Z,99003.25
2023-03-31T22:22:47.439Z,99009.31
2023-03-31T22:25:13.883Z,99008.47
2023-03-31T22:27:40.529Z,99009.31
2023-03-31T22:30:07.965Z,99002.41
2023-03-31T22:32:34.423Z,99000.69
2023-03-31T22:35:01.413Z,99005.88
2023-03-31T22:37:27.828Z,99004.97
2023-03-31T22:39:54.251Z,99011.88
2023-03-31T22:42:21.021Z,99015.34
2023-03-31T22:44:47.425Z,99006.69
2023-03-31T22:47:13.938Z,99011.84
2023-03-31T22:49:40.349Z,99012.72
2023-03-31T22:52:06.752Z,99016.16
2023-03-31T22:54:33.383Z,99013.50
2023-03-31T22:56:59.841Z,99018.69
2023-03-31T22:59:26.360Z,99015.22
2023-03-31T23:01:53.191Z,99016.94
2023-03-31T23:04:21.161Z,99011.75
2023-03-31T23:06:47.647Z,99018.66
2023-03-31T23:09:14.139Z,99018.66
2023-03-31T23:11:40.733Z,99016.03
2023-03-31T23:14:07.244Z,99020.38
2023-03-31T23:16:33.732Z,99017.78
2023-03-31T23:19:01.212Z,99026.38
2023-03-31T23:21:28.475Z,99019.47
2023-03-31T23:23:57.399Z,99023.81
2023-03-31T23:26:26.222Z,99011.72
2023-03-31T23:28:53.028Z,99018.63
2023-03-31T23:31:22.761Z,99018.59
2023-03-31T23:33:49.438Z,99022.06
2023-03-31T23:36:20.945Z,99026.38
2023-03-31T23:38:48.900Z,99017.75
2023-03-31T23:41:16.186Z,99022.94
2023-03-31T23:43:42.802Z,99022.06
2023-03-31T23:46:09.842Z,99016.88
2023-03-31T23:48:37.442Z,99016.88
2023-03-31T23:51:05.562Z,99016.03
2023-03-31T23:53:32.313Z,99020.34
2023-03-31T23:56:02.617Z,99018.63
2023-03-31T23:58:29.613Z,99014.31
